sensor_id;sensor_type;location;lat;lon;timestamp;pressure;altitude;pressure_sealevel;temperature;humidity
11880;BME280;5999;43.256;27.816;2022-10-03T00:02:25;100051.50;;;15.96;100.00
11880;BME280;5999;43.256;27.816;2022-10-03T00:05:08;100046.78;;;16.13;100.00
11880;BME280;5999;43.256;27.816;2022-10-03T00:08:02;100045.94;;;15.99;100.00
11880;BME280;5999;43.256;27.816;2022-10-03T00:10:37;100042.25;;;16.02;100.00
11880;BME280;5999;43.256;27.816;2022-10-03T00:13:19;100039.41;;;15.92;100.00
11880;BME280;5999;43.256;27.816;2022-10-03T00:16:00;100041.09;;;15.67;100.00
11880;BME280;5999;43.256;27.816;2022-10-03T00:18:37;100042.13;;;15.65;100.00
11880;BME280;5999;43.256;27.816;2022-10-03T00:24:07;100046.06;;;15.46;100.00
11880;BME280;5999;43.256;27.816;2022-10-03T00:26:45;100045.13;;;15.47;100.00
11880;BME280;5999;43.256;27.816;2022-10-03T00:29:22;100041.22;;;15.53;100.00
11880;BME280;5999;43.256;27.816;2022-10-03T00:31:58;100032.19;;;15.43;100.00
11880;BME280;5999;43.256;27.816;2022-10-03T00:34:38;100031.34;;;15.55;100.00
11880;BME280;5999;43.256;27.816;2022-10-03T00:37:21;100029.63;;;15.41;100.00
11880;BME280;5999;43.256;27.816;2022-10-03T00:40:21;100026.03;;;15.55;100.00
11880;BME280;5999;43.256;27.816;2022-10-03T00:43:16;100022.41;;;15.43;100.00
11880;BME280;5999;43.256;27.816;2022-10-03T00:46:12;100024.75;;;15.35;100.00
11880;BME280;5999;43.256;27.816;2022-10-03T00:49:05;100024.09;;;15.44;100.00
11880;BME280;5999;43.256;27.816;2022-10-03T00:51:49;100023.47;;;15.54;100.00
11880;BME280;5999;43.256;27.816;2022-10-03T00:54:32;100024.41;;;15.53;100.00
11880;BME280;5999;43.256;27.816;2022-10-03T00:57:11;100023.06;;;15.60;100.00
11880;BME280;5999;43.256;27.816;2022-10-03T01:00:01;100020.81;;;15.66;100.00
11880;BME280;5999;43.256;27.816;2022-10-03T01:02:41;100023.81;;;15.75;100.00
11880;BME280;5999;43.256;27.816;2022-10-03T01:05:17;100020.09;;;15.52;100.00
11880;BME280;5999;43.256;27.816;2022-10-03T01:08:11;100013.91;;;15.64;100.00
11880;BME280;5999;43.256;27.816;2022-10-03T01:10:51;100019.56;;;15.59;100.00
11880;BME280;5999;43.256;27.816;2022-10-03T01:13:30;100013.28;;;15.73;100.00
11880;BME280;5999;43.256;27.816;2022-10-03T01:16:07;100021.78;;;15.78;100.00
11880;BME280;5999;43.256;27.816;2022-10-03T01:18:45;100008.84;;;15.74;100.00
11880;BME280;5999;43.256;27.816;2022-10-03T01:21:24;100010.28;;;15.65;100.00
11880;BME280;5999;43.256;27.816;2022-10-03T01:27:00;100006.28;;;15.72;100.00
11880;BME280;5999;43.256;27.816;2022-10-03T01:29:44;100006.94;;;15.76;100.00
11880;BME280;5999;43.256;27.816;2022-10-03T01:32:39;100000.00;;;15.73;100.00
11880;BME280;5999;43.256;27.816;2022-10-03T01:35:16;100000.97;;;15.46;100.00
11880;BME280;5999;43.256;27.816;2022-10-03T01:37:51;100003.94;;;15.42;100.00
11880;BME280;5999;43.256;27.816;2022-10-03T01:40:25;99993.97;;;15.45;100.00
11880;BME280;5999;43.256;27.816;2022-10-03T01:43:05;99999.38;;;15.57;100.00
11880;BME280;5999;43.256;27.816;2022-10-03T01:45:46;99993.00;;;15.46;100.00
11880;BME280;5999;43.256;27.816;2022-10-03T01:48:22;99989.09;;;15.39;100.00
11880;BME280;5999;43.256;27.816;2022-10-03T01:51:00;100003.00;;;15.30;100.00
11880;BME280;5999;43.256;27.816;2022-10-03T01:53:37;99996.75;;;15.31;100.00
11880;BME280;5999;43.256;27.816;2022-10-03T01:56:11;99991.44;;;15.31;100.00
11880;BME280;5999;43.256;27.816;2022-10-03T01:58:50;99985.06;;;15.34;100.00
11880;BME280;5999;43.256;27.816;2022-10-03T02:01:25;99988.47;;;15.23;100.00
11880;BME280;5999;43.256;27.816;2022-10-03T02:03:59;99984.22;;;15.33;100.00
11880;BME280;5999;43.256;27.816;2022-10-03T02:06:38;99981.66;;;15.44;100.00
11880;BME280;5999;43.256;27.816;2022-10-03T02:09:16;99975.53;;;15.31;100.00
11880;BME280;5999;43.256;27.816;2022-10-03T02:11:59;99980.41;;;15.24;100.00
11880;BME280;5999;43.256;27.816;2022-10-03T02:14:33;99984.00;;;15.36;100.00
11880;BME280;5999;43.256;27.816;2022-10-03T02:17:10;99988.69;;;15.33;100.00
11880;BME280;5999;43.256;27.816;2022-10-03T02:19:50;99997.81;;;15.41;100.00
11880;BME280;5999;43.256;27.816;2022-10-03T02:22:30;99997.47;;;15.07;100.00
11880;BME280;5999;43.256;27.816;2022-10-03T02:25:08;100005.75;;;15.16;100.00
11880;BME280;5999;43.256;27.816;2022-10-03T02:34:15;99984.69;;;14.61;100.00
11880;BME280;5999;43.256;27.816;2022-10-03T02:37:18;99987.59;;;14.84;100.00
11880;BME280;5999;43.256;27.816;2022-10-03T02:43:42;100000.75;;;14.98;100.00
11880;BME280;5999;43.256;27.816;2022-10-03T02:46:48;100005.41;;;15.07;100.00
11880;BME280;5999;43.256;27.816;2022-10-03T02:49:48;100031.25;;;14.91;100.00
11880;BME280;5999;43.256;27.816;2022-10-03T02:55:43;100035.63;;;14.92;100.00
11880;BME280;5999;43.256;27.816;2022-10-03T03:01:50;100045.47;;;14.36;100.00
11880;BME280;5999;43.256;27.816;2022-10-03T03:07:31;100032.00;;;14.53;100.00
11880;BME280;5999;43.256;27.816;2022-10-03T03:10:26;100033.44;;;14.44;100.00
11880;BME280;5999;43.256;27.816;2022-10-03T03:16:26;100030.78;;;14.44;100.00
11880;BME280;5999;43.256;27.816;2022-10-03T03:19:11;100023.84;;;14.56;100.00
11880;BME280;5999;43.256;27.816;2022-10-03T03:21:49;100021.09;;;14.31;100.00
11880;BME280;5999;43.256;27.816;2022-10-03T03:24:45;100033.09;;;14.22;100.00
11880;BME280;5999;43.256;27.816;2022-10-03T03:27:35;100026.38;;;14.31;100.00
11880;BME280;5999;43.256;27.816;2022-10-03T03:30:07;100027.19;;;14.18;100.00
11880;BME280;5999;43.256;27.816;2022-10-03T03:32:56;100023.25;;;13.82;100.00
11880;BME280;5999;43.256;27.816;2022-10-03T03:35:39;100017.88;;;13.84;100.00
11880;BME280;5999;43.256;27.816;2022-10-03T03:38:24;100020.22;;;13.89;100.00
11880;BME280;5999;43.256;27.816;2022-10-03T03:41:05;100021.72;;;13.93;100.00
11880;BME280;5999;43.256;27.816;2022-10-03T03:46:44;100019.69;;;13.83;100.00
11880;BME280;5999;43.256;27.816;2022-10-03T03:49:30;100017.38;;;14.06;100.00
11880;BME280;5999;43.256;27.816;2022-10-03T03:52:17;100018.66;;;14.13;100.00
11880;BME280;5999;43.256;27.816;2022-10-03T03:55:12;100015.03;;;14.29;100.00
11880;BME280;5999;43.256;27.816;2022-10-03T03:58:05;100007.94;;;14.29;100.00
11880;BME280;5999;43.256;27.816;2022-10-03T04:00:46;100005.19;;;14.31;100.00
11880;BME280;5999;43.256;27.816;2022-10-03T04:03:29;99999.78;;;14.32;100.00
11880;BME280;5999;43.256;27.816;2022-10-03T04:06:14;100002.38;;;14.19;100.00
11880;BME280;5999;43.256;27.816;2022-10-03T04:09:08;99994.34;;;14.21;100.00
11880;BME280;5999;43.256;27.816;2022-10-03T04:11:50;100000.41;;;14.23;100.00
11880;BME280;5999;43.256;27.816;2022-10-03T04:14:47;99988.16;;;14.35;100.00
11880;BME280;5999;43.256;27.816;2022-10-03T04:17:41;99992.72;;;14.33;100.00
11880;BME280;5999;43.256;27.816;2022-10-03T04:20:48;99996.28;;;14.32;100.00
11880;BME280;5999;43.256;27.816;2022-10-03T04:23:34;100004.69;;;14.38;100.00
11880;BME280;5999;43.256;27.816;2022-10-03T04:26:21;100005.44;;;14.40;100.00
11880;BME280;5999;43.256;27.816;2022-10-03T04:32:20;100004.00;;;14.49;100.00
11880;BME280;5999;43.256;27.816;2022-10-03T04:35:03;100006.44;;;14.52;100.00
11880;BME280;5999;43.256;27.816;2022-10-03T04:37:40;99998.88;;;14.60;100.00
11880;BME280;5999;43.256;27.816;2022-10-03T04:40:22;100002.81;;;14.68;100.00
11880;BME280;5999;43.256;27.816;2022-10-03T04:42:59;99996.47;;;14.83;100.00
11880;BME280;5999;43.256;27.816;2022-10-03T04:45:47;99988.44;;;14.97;100.00
11880;BME280;5999;43.256;27.816;2022-10-03T04:48:26;99977.50;;;14.76;100.00
11880;BME280;5999;43.256;27.816;2022-10-03T04:51:03;99970.84;;;14.83;100.00
11880;BME280;5999;43.256;27.816;2022-10-03T04:53:43;99965.97;;;15.16;100.00
11880;BME280;5999;43.256;27.816;2022-10-03T04:56:38;99952.41;;;15.33;100.00
11880;BME280;5999;43.256;27.816;2022-10-03T05:02:08;99951.75;;;15.30;100.00
11880;BME280;5999;43.256;27.816;2022-10-03T05:04:50;99953.63;;;14.63;100.00
11880;BME280;5999;43.256;27.816;2022-10-03T05:07:27;99951.75;;;14.91;100.00
11880;BME280;5999;43.256;27.816;2022-10-03T05:10:03;99960.69;;;15.29;100.00
11880;BME280;5999;43.256;27.816;2022-10-03T05:12:45;99942.00;;;15.30;100.00
11880;BME280;5999;43.256;27.816;2022-10-03T05:15:20;99935.78;;;15.68;100.00
11880;BME280;5999;43.256;27.816;2022-10-03T05:17:59;99932.38;;;15.92;100.00
11880;BME280;5999;43.256;27.816;2022-10-03T05:20:51;99939.63;;;16.01;100.00
11880;BME280;5999;43.256;27.816;2022-10-03T05:23:33;99955.34;;;15.54;100.00
11880;BME280;5999;43.256;27.816;2022-10-03T05:26:10;99970.94;;;14.82;100.00
11880;BME280;5999;43.256;27.816;2022-10-03T05:28:46;99977.91;;;14.43;100.00
11880;BME280;5999;43.256;27.816;2022-10-03T05:31:27;99999.50;;;14.37;100.00
11880;BME280;5999;43.256;27.816;2022-10-03T05:34:01;99995.81;;;14.12;100.00
11880;BME280;5999;43.256;27.816;2022-10-03T05:36:48;100002.34;;;14.06;100.00
11880;BME280;5999;43.256;27.816;2022-10-03T05:39:29;100001.41;;;14.35;100.00
11880;BME280;5999;43.256;27.816;2022-10-03T05:42:29;100000.78;;;14.44;100.00
11880;BME280;5999;43.256;27.816;2022-10-03T05:45:03;99998.28;;;14.95;100.00
11880;BME280;5999;43.256;27.816;2022-10-03T05:47:39;100008.00;;;15.47;100.00
11880;BME280;5999;43.256;27.816;2022-10-03T05:53:33;100007.19;;;16.82;100.00
11880;BME280;5999;43.256;27.816;2022-10-03T05:56:15;99987.00;;;17.48;100.00
11880;BME280;5999;43.256;27.816;2022-10-03T05:59:21;99961.34;;;17.70;100.00
11880;BME280;5999;43.256;27.816;2022-10-03T06:02:21;99952.47;;;18.47;100.00
11880;BME280;5999;43.256;27.816;2022-10-03T06:08:30;99933.59;;;18.92;100.00
11880;BME280;5999;43.256;27.816;2022-10-03T06:11:17;99937.94;;;18.93;100.00
11880;BME280;5999;43.256;27.816;2022-10-03T06:16:55;99925.34;;;19.26;99.45
11880;BME280;5999;43.256;27.816;2022-10-03T06:19:41;99918.53;;;19.93;97.84
11880;BME280;5999;43.256;27.816;2022-10-03T06:28:50;99912.09;;;24.05;67.03
11880;BME280;5999;43.256;27.816;2022-10-03T06:38:02;99943.47;;;20.33;75.26
11880;BME280;5999;43.256;27.816;2022-10-03T06:41:05;99950.38;;;20.25;80.81
11880;BME280;5999;43.256;27.816;2022-10-03T06:43:49;99949.78;;;21.10;78.64
11880;BME280;5999;43.256;27.816;2022-10-03T06:50:01;99941.44;;;22.51;63.31
11880;BME280;5999;43.256;27.816;2022-10-03T06:52:58;99940.50;;;22.60;62.97
11880;BME280;5999;43.256;27.816;2022-10-03T06:59:03;99934.69;;;21.83;68.99
11880;BME280;5999;43.256;27.816;2022-10-03T07:01:56;99928.13;;;20.93;68.60
11880;BME280;5999;43.256;27.816;2022-10-03T07:05:02;99930.81;;;20.35;75.19
11880;BME280;5999;43.256;27.816;2022-10-03T07:11:01;99939.47;;;19.47;78.33
11880;BME280;5999;43.256;27.816;2022-10-03T07:14:03;99939.16;;;19.10;84.27
11880;BME280;5999;43.256;27.816;2022-10-03T07:17:06;99946.47;;;18.55;88.64
11880;BME280;5999;43.256;27.816;2022-10-03T07:19:52;99951.19;;;17.86;95.67
11880;BME280;5999;43.256;27.816;2022-10-03T07:25:38;99951.53;;;17.71;100.00
11880;BME280;5999;43.256;27.816;2022-10-03T07:28:41;99955.03;;;17.94;100.00
11880;BME280;5999;43.256;27.816;2022-10-03T07:31:26;99953.00;;;18.30;100.00
11880;BME280;5999;43.256;27.816;2022-10-03T07:37:18;99937.81;;;17.98;100.00
11880;BME280;5999;43.256;27.816;2022-10-03T07:40:25;99937.41;;;18.25;100.00
11880;BME280;5999;43.256;27.816;2022-10-03T07:43:17;99934.97;;;18.22;100.00
11880;BME280;5999;43.256;27.816;2022-10-03T07:46:15;99918.06;;;18.44;100.00
11880;BME280;5999;43.256;27.816;2022-10-03T07:49:09;99920.69;;;18.23;100.00
11880;BME280;5999;43.256;27.816;2022-10-03T07:51:55;99901.94;;;18.66;99.49
11880;BME280;5999;43.256;27.816;2022-10-03T07:54:45;99888.50;;;18.89;96.94
11880;BME280;5999;43.256;27.816;2022-10-03T07:57:39;99895.53;;;19.21;96.44
11880;BME280;5999;43.256;27.816;2022-10-03T08:00:19;99894.25;;;19.56;93.50
11880;BME280;5999;43.256;27.816;2022-10-03T08:06:22;99898.72;;;19.45;89.67
11880;BME280;5999;43.256;27.816;2022-10-03T08:09:16;99884.66;;;19.43;89.23
11880;BME280;5999;43.256;27.816;2022-10-03T08:12:24;99888.03;;;19.45;88.92
11880;BME280;5999;43.256;27.816;2022-10-03T08:14:59;99877.41;;;19.65;85.28
11880;BME280;5999;43.256;27.816;2022-10-03T08:20:46;99879.88;;;19.37;87.57
11880;BME280;5999;43.256;27.816;2022-10-03T08:26:43;99868.22;;;19.07;85.06
11880;BME280;5999;43.256;27.816;2022-10-03T08:29:31;99866.91;;;18.50;89.36
11880;BME280;5999;43.256;27.816;2022-10-03T08:32:32;99865.06;;;18.30;91.27
11880;BME280;5999;43.256;27.816;2022-10-03T08:38:47;99877.50;;;18.61;92.42
11880;BME280;5999;43.256;27.816;2022-10-03T08:47:31;99892.97;;;18.14;99.28
11880;BME280;5999;43.256;27.816;2022-10-03T08:50:25;99887.56;;;18.58;100.00
11880;BME280;5999;43.256;27.816;2022-10-03T08:53:30;99886.94;;;18.65;98.91
11880;BME280;5999;43.256;27.816;2022-10-03T08:56:07;99884.34;;;19.27;98.48
11880;BME280;5999;43.256;27.816;2022-10-03T08:59:04;99876.88;;;19.71;93.60
11880;BME280;5999;43.256;27.816;2022-10-03T09:05:23;99873.66;;;19.37;91.26
11880;BME280;5999;43.256;27.816;2022-10-03T09:08:29;99880.03;;;19.55;90.27
11880;BME280;5999;43.256;27.816;2022-10-03T09:11:28;99882.72;;;19.45;87.74
11880;BME280;5999;43.256;27.816;2022-10-03T09:14:30;99883.97;;;19.11;87.53
11880;BME280;5999;43.256;27.816;2022-10-03T09:17:13;99889.91;;;19.24;89.51
11880;BME280;5999;43.256;27.816;2022-10-03T09:23:08;99901.56;;;19.54;91.56
11880;BME280;5999;43.256;27.816;2022-10-03T09:25:57;99912.94;;;19.56;90.10
11880;BME280;5999;43.256;27.816;2022-10-03T09:28:51;99906.25;;;18.79;94.24
11880;BME280;5999;43.256;27.816;2022-10-03T09:32:02;99916.78;;;18.59;98.78
11880;BME280;5999;43.256;27.816;2022-10-03T09:35:07;99914.56;;;18.64;100.00
11880;BME280;5999;43.256;27.816;2022-10-03T09:37:56;99922.34;;;18.56;100.00
11880;BME280;5999;43.256;27.816;2022-10-03T09:47:08;99946.97;;;17.84;100.00
11880;BME280;5999;43.256;27.816;2022-10-03T09:56:10;99957.22;;;17.21;100.00
11880;BME280;5999;43.256;27.816;2022-10-03T09:59:03;99965.44;;;17.40;100.00
11880;BME280;5999;43.256;27.816;2022-10-03T10:01:37;99962.44;;;17.45;100.00
11880;BME280;5999;43.256;27.816;2022-10-03T10:10:44;99970.72;;;16.84;100.00
11880;BME280;5999;43.256;27.816;2022-10-03T10:13:27;99978.56;;;16.61;100.00
11880;BME280;5999;43.256;27.816;2022-10-03T10:16:32;99982.28;;;16.83;100.00
11880;BME280;5999;43.256;27.816;2022-10-03T10:19:36;99990.38;;;16.81;100.00
11880;BME280;5999;43.256;27.816;2022-10-03T10:28:43;100035.91;;;16.29;100.00
11880;BME280;5999;43.256;27.816;2022-10-03T10:34:38;100107.66;;;16.03;100.00
11880;BME280;5999;43.256;27.816;2022-10-03T10:37:43;100164.66;;;16.36;100.00
11880;BME280;5999;43.256;27.816;2022-10-03T10:47:11;100298.41;;;15.83;100.00
11880;BME280;5999;43.256;27.816;2022-10-03T11:05:41;100343.28;;;16.14;100.00
11880;BME280;5999;43.256;27.816;2022-10-03T11:11:57;100325.81;;;16.37;100.00
11880;BME280;5999;43.256;27.816;2022-10-03T11:15:12;100352.81;;;16.43;100.00
11880;BME280;5999;43.256;27.816;2022-10-03T11:21:48;100380.53;;;16.26;100.00
11880;BME280;5999;43.256;27.816;2022-10-03T11:24:55;100402.56;;;16.54;100.00
11880;BME280;5999;43.256;27.816;2022-10-03T11:31:19;100403.03;;;17.12;100.00
11880;BME280;5999;43.256;27.816;2022-10-03T11:37:12;100377.06;;;17.53;100.00
11880;BME280;5999;43.256;27.816;2022-10-03T11:39:48;100358.28;;;17.30;100.00
11880;BME280;5999;43.256;27.816;2022-10-03T11:42:25;100359.41;;;17.89;100.00
11880;BME280;5999;43.256;27.816;2022-10-03T11:44:57;100326.91;;;17.83;100.00
11880;BME280;5999;43.256;27.816;2022-10-03T11:47:49;100253.88;;;17.51;100.00
11880;BME280;5999;43.256;27.816;2022-10-03T11:50:40;100227.34;;;17.73;100.00
11880;BME280;5999;43.256;27.816;2022-10-03T11:53:21;100219.44;;;17.84;100.00
11880;BME280;5999;43.256;27.816;2022-10-03T11:55:53;100191.09;;;17.48;100.00
11880;BME280;5999;43.256;27.816;2022-10-03T11:58:34;100193.13;;;17.44;100.00
11880;BME280;5999;43.256;27.816;2022-10-03T12:01:22;100189.69;;;17.55;100.00
11880;BME280;5999;43.256;27.816;2022-10-03T12:03:58;100196.47;;;18.06;100.00
11880;BME280;5999;43.256;27.816;2022-10-03T12:06:49;100166.44;;;18.26;100.00
11880;BME280;5999;43.256;27.816;2022-10-03T12:09:44;100144.44;;;17.66;100.00
11880;BME280;5999;43.256;27.816;2022-10-03T12:12:19;100148.00;;;17.90;100.00
11880;BME280;5999;43.256;27.816;2022-10-03T12:14:55;100161.50;;;17.75;100.00
11880;BME280;5999;43.256;27.816;2022-10-03T12:17:29;100179.13;;;17.89;100.00
11880;BME280;5999;43.256;27.816;2022-10-03T12:20:03;100175.19;;;17.71;100.00
11880;BME280;5999;43.256;27.816;2022-10-03T12:22:41;100164.69;;;17.80;100.00
11880;BME280;5999;43.256;27.816;2022-10-03T12:25:19;100133.13;;;17.87;100.00
11880;BME280;5999;43.256;27.816;2022-10-03T12:27:56;100123.56;;;17.84;100.00
11880;BME280;5999;43.256;27.816;2022-10-03T12:30:25;100107.06;;;17.68;100.00
11880;BME280;5999;43.256;27.816;2022-10-03T12:33:05;100102.00;;;17.87;100.00
11880;BME280;5999;43.256;27.816;2022-10-03T12:35:42;100087.31;;;17.59;100.00
11880;BME280;5999;43.256;27.816;2022-10-03T12:38:28;100086.22;;;17.62;100.00
11880;BME280;5999;43.256;27.816;2022-10-03T12:41:08;100080.91;;;17.62;100.00
11880;BME280;5999;43.256;27.816;2022-10-03T12:43:48;100092.28;;;17.75;100.00
11880;BME280;5999;43.256;27.816;2022-10-03T12:46:25;100093.00;;;17.66;100.00
11880;BME280;5999;43.256;27.816;2022-10-03T12:49:01;100094.19;;;17.51;100.00
11880;BME280;5999;43.256;27.816;2022-10-03T12:51:50;100118.06;;;17.17;100.00
11880;BME280;5999;43.256;27.816;2022-10-03T12:54:34;100125.31;;;17.15;100.00
11880;BME280;5999;43.256;27.816;2022-10-03T13:00:19;100130.00;;;16.87;100.00
11880;BME280;5999;43.256;27.816;2022-10-03T13:05:54;100137.25;;;17.09;100.00
11880;BME280;5999;43.256;27.816;2022-10-03T13:08:39;100141.28;;;17.26;100.00
11880;BME280;5999;43.256;27.816;2022-10-03T13:11:21;100136.69;;;17.28;100.00
11880;BME280;5999;43.256;27.816;2022-10-03T13:14:10;100129.97;;;17.46;100.00
11880;BME280;5999;43.256;27.816;2022-10-03T13:16:46;100113.41;;;17.07;100.00
11880;BME280;5999;43.256;27.816;2022-10-03T13:19:21;100107.41;;;17.17;100.00
11880;BME280;5999;43.256;27.816;2022-10-03T13:21:56;100096.22;;;17.36;100.00
11880;BME280;5999;43.256;27.816;2022-10-03T13:24:35;100082.28;;;17.21;100.00
11880;BME280;5999;43.256;27.816;2022-10-03T13:27:25;100086.13;;;17.17;100.00
11880;BME280;5999;43.256;27.816;2022-10-03T13:30:04;100084.19;;;17.19;100.00
11880;BME280;5999;43.256;27.816;2022-10-03T13:32:34;100089.75;;;17.16;100.00
11880;BME280;5999;43.256;27.816;2022-10-03T13:38:35;100071.13;;;17.16;100.00
11880;BME280;5999;43.256;27.816;2022-10-03T13:41:14;100065.38;;;17.33;100.00
11880;BME280;5999;43.256;27.816;2022-10-03T13:43:50;100051.09;;;17.34;100.00
11880;BME280;5999;43.256;27.816;2022-10-03T13:46:28;100039.38;;;17.48;100.00
11880;BME280;5999;43.256;27.816;2022-10-03T13:48:58;100029.31;;;17.40;100.00
11880;BME280;5999;43.256;27.816;2022-10-03T13:51:35;100028.00;;;17.46;100.00
11880;BME280;5999;43.256;27.816;2022-10-03T13:54:08;100012.78;;;17.59;100.00
11880;BME280;5999;43.256;27.816;2022-10-03T13:56:46;100004.81;;;17.59;100.00
11880;BME280;5999;43.256;27.816;2022-10-03T13:59:38;100004.91;;;17.69;100.00
11880;BME280;5999;43.256;27.816;2022-10-03T14:02:28;99990.63;;;17.59;100.00
11880;BME280;5999;43.256;27.816;2022-10-03T14:07:54;99992.81;;;17.76;100.00
11880;BME280;5999;43.256;27.816;2022-10-03T14:10:43;99987.97;;;17.70;100.00
11880;BME280;5999;43.256;27.816;2022-10-03T14:13:21;99983.09;;;18.09;100.00
11880;BME280;5999;43.256;27.816;2022-10-03T14:15:54;99978.88;;;18.06;100.00
11880;BME280;5999;43.256;27.816;2022-10-03T14:18:40;99963.91;;;18.26;100.00
11880;BME280;5999;43.256;27.816;2022-10-03T14:21:37;99952.16;;;18.29;100.00
11880;BME280;5999;43.256;27.816;2022-10-03T14:27:02;99944.59;;;18.66;100.00
11880;BME280;5999;43.256;27.816;2022-10-03T14:29:39;99941.66;;;18.81;100.00
11880;BME280;5999;43.256;27.816;2022-10-03T14:32:17;99932.06;;;18.78;100.00
11880;BME280;5999;43.256;27.816;2022-10-03T14:34:54;99929.03;;;18.83;100.00
11880;BME280;5999;43.256;27.816;2022-10-03T14:37:29;99926.97;;;18.54;100.00
11880;BME280;5999;43.256;27.816;2022-10-03T14:40:10;99930.06;;;18.06;100.00
11880;BME280;5999;43.256;27.816;2022-10-03T14:43:09;99933.38;;;17.76;100.00
11880;BME280;5999;43.256;27.816;2022-10-03T14:45:44;99934.72;;;17.93;100.00
11880;BME280;5999;43.256;27.816;2022-10-03T14:48:17;99942.44;;;17.96;100.00
11880;BME280;5999;43.256;27.816;2022-10-03T14:50:48;99954.84;;;18.29;100.00
11880;BME280;5999;43.256;27.816;2022-10-03T14:53:19;99938.47;;;18.34;100.00
11880;BME280;5999;43.256;27.816;2022-10-03T14:55:57;99937.91;;;18.51;100.00
11880;BME280;5999;43.256;27.816;2022-10-03T14:58:27;99925.63;;;18.60;100.00
11880;BME280;5999;43.256;27.816;2022-10-03T15:01:04;99926.66;;;18.68;100.00
11880;BME280;5999;43.256;27.816;2022-10-03T15:03:39;99927.13;;;18.74;100.00
11880;BME280;5999;43.256;27.816;2022-10-03T15:06:20;99921.53;;;18.56;100.00
11880;BME280;5999;43.256;27.816;2022-10-03T15:08:50;99924.13;;;18.35;100.00
11880;BME280;5999;43.256;27.816;2022-10-03T15:11:25;99926.59;;;18.26;100.00
11880;BME280;5999;43.256;27.816;2022-10-03T15:13:55;99927.16;;;18.41;100.00
11880;BME280;5999;43.256;27.816;2022-10-03T15:16:24;99929.44;;;18.46;100.00
11880;BME280;5999;43.256;27.816;2022-10-03T15:18:52;99930.94;;;18.39;100.00
11880;BME280;5999;43.256;27.816;2022-10-03T15:21:21;99926.69;;;18.36;100.00
11880;BME280;5999;43.256;27.816;2022-10-03T15:23:55;99929.97;;;18.28;100.00
11880;BME280;5999;43.256;27.816;2022-10-03T15:26:23;99935.91;;;18.32;100.00
11880;BME280;5999;43.256;27.816;2022-10-03T15:28:53;99933.38;;;18.31;100.00
11880;BME280;5999;43.256;27.816;2022-10-03T15:31:32;99939.28;;;18.34;100.00
11880;BME280;5999;43.256;27.816;2022-10-03T15:34:00;99931.78;;;18.39;100.00
11880;BME280;5999;43.256;27.816;2022-10-03T15:36:33;99927.09;;;18.53;100.00
11880;BME280;5999;43.256;27.816;2022-10-03T15:39:05;99925.75;;;18.58;100.00
11880;BME280;5999;43.256;27.816;2022-10-03T15:41:41;99920.16;;;18.61;100.00
11880;BME280;5999;43.256;27.816;2022-10-03T15:44:17;99921.63;;;18.33;100.00
11880;BME280;5999;43.256;27.816;2022-10-03T15:46:49;99928.00;;;18.42;100.00
11880;BME280;5999;43.256;27.816;2022-10-03T15:49:22;99933.72;;;18.37;100.00
11880;BME280;5999;43.256;27.816;2022-10-03T15:51:52;99933.88;;;18.24;100.00
11880;BME280;5999;43.256;27.816;2022-10-03T15:54:22;99937.75;;;18.20;100.00
11880;BME280;5999;43.256;27.816;2022-10-03T15:56:52;99940.72;;;18.06;100.00
11880;BME280;5999;43.256;27.816;2022-10-03T15:59:25;99945.53;;;18.23;100.00
11880;BME280;5999;43.256;27.816;2022-10-03T16:01:54;99955.03;;;18.37;100.00
11880;BME280;5999;43.256;27.816;2022-10-03T16:04:24;99954.44;;;18.34;100.00
11880;BME280;5999;43.256;27.816;2022-10-03T16:06:58;99959.66;;;18.35;100.00
11880;BME280;5999;43.256;27.816;2022-10-03T16:09:31;99967.06;;;18.32;100.00
11880;BME280;5999;43.256;27.816;2022-10-03T16:15:03;99965.53;;;18.50;100.00
11880;BME280;5999;43.256;27.816;2022-10-03T16:17:42;99971.13;;;18.47;100.00
11880;BME280;5999;43.256;27.816;2022-10-03T16:20:17;99986.66;;;18.42;100.00
11880;BME280;5999;43.256;27.816;2022-10-03T16:22:49;99985.72;;;18.20;100.00
11880;BME280;5999;43.256;27.816;2022-10-03T16:25:19;99998.97;;;17.99;100.00
11880;BME280;5999;43.256;27.816;2022-10-03T16:27:53;99995.72;;;17.62;100.00
11880;BME280;5999;43.256;27.816;2022-10-03T16:30:23;99992.53;;;17.34;100.00
11880;BME280;5999;43.256;27.816;2022-10-03T16:33:02;99994.47;;;17.21;100.00
11880;BME280;5999;43.256;27.816;2022-10-03T16:35:35;99993.72;;;17.07;100.00
11880;BME280;5999;43.256;27.816;2022-10-03T16:38:07;99992.97;;;17.05;100.00
11880;BME280;5999;43.256;27.816;2022-10-03T16:40:39;100012.06;;;16.88;100.00
11880;BME280;5999;43.256;27.816;2022-10-03T16:43:06;100012.50;;;16.82;100.00
11880;BME280;5999;43.256;27.816;2022-10-03T16:45:42;100007.84;;;16.73;100.00
11880;BME280;5999;43.256;27.816;2022-10-03T16:48:13;100010.56;;;16.60;100.00
11880;BME280;5999;43.256;27.816;2022-10-03T16:51:12;100024.44;;;16.52;100.00
11880;BME280;5999;43.256;27.816;2022-10-03T16:53:43;100029.00;;;16.50;100.00
11880;BME280;5999;43.256;27.816;2022-10-03T16:56:15;100025.13;;;16.43;100.00
11880;BME280;5999;43.256;27.816;2022-10-03T16:58:47;100036.03;;;16.51;100.00
11880;BME280;5999;43.256;27.816;2022-10-03T17:01:30;100034.78;;;16.44;100.00
11880;BME280;5999;43.256;27.816;2022-10-03T17:04:10;100044.91;;;16.39;100.00
11880;BME280;5999;43.256;27.816;2022-10-03T17:06:44;100050.97;;;16.28;100.00
11880;BME280;5999;43.256;27.816;2022-10-03T17:09:23;100057.81;;;16.19;100.00
11880;BME280;5999;43.256;27.816;2022-10-03T17:11:54;100075.03;;;16.26;100.00
11880;BME280;5999;43.256;27.816;2022-10-03T17:14:24;100080.94;;;16.30;100.00